In Rescue
 
Open Full Screen Window  High Contrast Mode
November 19, 2019 1:44 PM EST
Weather Information
Wind Direction
  ---
Wind Speed
  00 kt (0 mph)
Wind Gust
  00 kt (0 mph)
Altimeter
29.81 in
Visibility
10 SM
Temperature
05° C
41° F
Dewpoint
-01° C
30° F
Humidity
66%
1hr Rain Fall
00.00 in.
24hr Rain Fall
00.00 in.
Sky Condition
Overcast @ 2,200 ft
MVFR

METAR KIRS 191844Z AUTO 00000KT 10SM OVC022 05/M01 A2981 RMK AO2 T00481015

FAA Disclaimer: The data displayed is for advisory purposes only and is not to be used for flight planning or operations.